Airfield :







YOU CAN JOIN US ON...

 
LOGIN :

Register | Disclaimer

   EN    FR    IT 

 









Legend :    VFR   Marginal VFR   IFR   Intensive IFR   Very Intensive IFR
Visi :
Ceiling :
>= 8 km
>= 3000ft
5 to 8 km
1000 to 3000 ft
1500m to 5 km
500 to 1000 ft
800 to 1500m
200 to 500 ft
< 800m
< 200 ft
Symbols :   Thunderstorms  Fog  Heavy snow  Heavy precipitations  Wind > 20 kt






- Airport Elevation : 118 ft
- IATA code : YUL


CYUL - Montréal - Pierre-Elliott-Trudeau Int.

CURRENT METAR :
  • 302200Z 21018G23KT 30SM FEW037 SCT065 SCT130 BKN250 16/10 A2954 RMK SC1SC2AC1CI1 SLP006 DENSITY ALT 700FT

EXPIRED METARs :
  • 302100Z 22011G19KT 30SM FEW040 SCT062 SCT090 BKN250 16/10 A2953 RMK SC2SC1AC1CI2 SLP003 DENSITY ALT 800FT
  • 302000Z 23020G27KT 30SM FEW042 FEW080 FEW140 FEW250 17/09 A2952 RMK CU1AC1AC1CI1 AC TR AC TR SLP999 DENSITY ALT 800FT

TAF TAF CYUL
Valid from the 30 at 21:00 until the 01 at 18:00 UTC


302038Z 3021/0118 23015G25KT P6SM FEW020 BKN040
TEMPO 3021/0103 P6SM -SHRA BKN020 BKN040
BECMG 3022/3024 22015KT
FM010300 22012KT P6SM -SHRA BKN015 OVC030
BECMG 0104/0106 21008KT RMK NXT FCST BY 010000Z
ATIS : ENG : +1 514-633-3037 FRA : +1 514-633-3034
CZUL FIR / North America



MET'MAP, your aeronautical weather chart ! - Copyright ORBIFLY December 2007 - Disclaimer

ORBIFLY MET'MAP TEAM :

Programming & Development : Alexandra Zaïnal
Concept & original design : Baudouin d'Aumeries
Assistance for programming : Marc-Olivier Méhu
Technical & hardware support : Manuel Goepfert

Contact : metmap@orbifly.com




SOURCES & CREDITS :

   NOAA